Latest Weather Observations for Lajamanu

IDD60801

Issued at 9:31 pm CST Tuesday 5 May 2015 (issued every 30 minutes, with the page automatically refreshed every 10 minutes)

About weather observations | Map of weather stations | Latest weather observations for NT | Other Formats
Station Details ID: 014829 Name: LAJAMANU AIRPORT Lat: -18.33 Lon: 130.64 Height: 315.6 m
Data from the previous 72 hours. | See also: Recent months at Lajamanu
Date/Time
CST
Temp
°C
App
Temp
°C
Dew
Point
Rel
Hum
%
Delta-T
°C
Wind Press
QNH
hPa
Press
MSL
hPa
Rain
since 9 am
mm
Dir
 
Spd
km/h
Gust
km/h
Spd
kts
Gust
kts
05/09:30pm 21.2 18.7 3.9 32 8.5 S 6 7 3 4 1013.5 1012.2 0.0
05/09:00pm 22.3 19.7 3.4 29 9.2 SSE 6 7 3 4 1013.3 1012.0 0.0
05/08:30pm 22.8 19.9 2.8 27 9.7 SSE 7 9 4 5 1013.0 1011.7 0.0
05/08:00pm 22.9 20.1 2.9 27 9.7 SSE 7 9 4 5 1012.5 1011.3 0.0
05/07:30pm 23.6 20.6 1.9 24 10.4 SSE 7 9 4 5 1012.0 1010.8 0.0
05/07:00pm 24.8 23.1 1.7 22 11.1 CALM 0 0 0 0 1011.8 1010.5 0.0
05/06:30pm 28.7 24.8 -1.4 14 14.1 ESE 9 9 5 5 1011.3 1010.0 0.0
05/06:00pm 32.3 27.6 -1.9 11 16.3 ESE 13 17 7 9 1011.0 1009.7 0.0
05/05:30pm 34.0 29.1 -0.6 11 17.1 ESE 15 20 8 11 1010.7 1009.4 0.0
05/05:00pm 34.7 30.1 -1.4 10 17.6 ESE 13 24 7 13 1010.6 1009.3 0.0
05/04:30pm 35.2 30.2 -1.0 10 17.9 ESE 15 26 8 14 1010.4 1009.1 0.0
05/04:00pm 35.2 30.8 0.3 11 17.6 ESE 13 24 7 13 1010.4 1009.1 0.0
05/03:30pm 35.4 29.7 -0.8 10 18.0 ESE 19 32 10 17 1010.7 1009.4 0.0
05/03:00pm 35.1 30.3 0.2 11 17.6 SE 15 26 8 14 1010.9 1009.6 0.0
05/02:30pm 35.2 29.5 -1.0 10 17.9 SE 19 28 10 15 1011.2 1009.9 0.0
05/02:00pm 34.9 28.9 -1.2 10 17.7 SE 20 32 11 17 1011.6 1010.3 0.0
05/01:30pm 34.7 28.5 -0.1 11 17.4 SE 22 33 12 18 1012.2 1011.0 0.0
05/01:00pm 34.3 28.6 -0.4 11 17.2 SE 19 30 10 16 1012.9 1011.6 0.0
05/12:30pm 33.8 28.1 0.5 12 16.7 SE 20 30 11 16 1013.4 1012.1 0.0
05/12:00pm 33.6 29.0 1.4 13 16.4 SE 15 24 8 13 1013.9 1012.6 0.0
05/11:30am 32.4 28.2 1.5 14 15.6 ESE 13 20 7 11 1014.5 1013.2 0.0
05/11:00am 31.7 27.0 1.0 14 15.3 ESE 15 22 8 12 1014.7 1013.4 0.0
05/10:30am 30.7 26.7 2.9 17 14.2 ESE 13 17 7 9 1014.9 1013.7 0.0
05/10:00am 28.9 25.3 3.0 19 13.1 SE 11 15 6 8 1015.1 1013.9 0.0
05/09:30am 25.9 23.4 4.9 26 10.8 SE 7 9 4 5 1014.8 1013.6 0.0
05/09:00am 23.6 21.9 6.0 32 9.1 SSE 4 7 2 4 1014.8 1013.6 0.0
05/08:30am 20.5 19.3 4.5 35 7.9 CALM 0 6 0 3 1014.6 1013.3 0.0
05/08:00am 18.2 17.0 6.4 46 5.9 NW 2 6 1 3 1014.2 1012.9 0.0
05/07:30am 15.2 13.0 6.2 55 4.4 NW 7 9 4 5 1014.0 1012.7 0.0
05/07:00am 13.4 11.0 5.3 58 3.9 NW 7 9 4 5 1013.7 1012.4 0.0
05/06:30am 14.3 12.0 5.9 57 4.1 NW 7 9 4 5 1013.5 1012.2 0.0
05/06:00am 14.6 12.3 5.7 55 4.3 NW 7 7 4 4 1013.3 1012.0 0.0
05/05:30am 15.0 12.6 5.2 52 4.7 NNW 7 9 4 5 1013.1 1011.8 0.0
05/05:00am 15.0 12.5 5.0 51 4.8 NW 7 9 4 5 1013.1 1011.8 0.0
05/04:30am 15.4 12.9 4.8 49 5.1 NW 7 7 4 4 1013.1 1011.8 0.0
05/04:00am 15.8 13.4 5.1 49 5.2 NW 7 9 4 5 1013.2 1011.9 0.0
05/03:30am 15.8 13.4 5.1 49 5.2 NW 7 7 4 4 1013.2 1011.9 0.0
05/03:00am 16.3 13.5 5.3 48 5.3 NW 9 11 5 6 1013.4 1012.1 0.0
05/02:30am 16.4 13.7 5.4 48 5.4 NNW 9 11 5 6 1013.5 1012.2 0.0
05/02:00am 15.9 14.7 4.6 47 5.4 CALM 0 7 0 4 1013.5 1012.2 0.0
05/01:30am 17.1 15.9 4.8 44 5.9 CALM 0 4 0 2 1013.9 1012.6 0.0
05/01:00am 16.6 14.2 4.3 44 5.9 SSW 6 7 3 4 1014.2 1012.9 0.0
05/12:30am 16.4 14.5 5.1 47 5.5 WSW 4 6 2 3 1014.5 1013.2 0.0
05/12:00am 16.6 14.4 5.3 47 5.5 WSW 6 13 3 7 1014.7 1013.4 0.0
 
Date/Time
CST
Temp
°C
App
Temp
°C
Dew
Point
Rel
Hum
%
Delta-T
°C
Wind Press
QNH
hPa
Press
MSL
hPa
Rain
since 9 am
mm
Dir
 
Spd
km/h
Gust
km/h
Spd
kts
Gust
kts
04/11:30pm 17.9 16.7 4.5 41 6.5 CALM 0 0 0 0 1014.7 1013.4 0.0
04/11:00pm 18.4 17.1 4.2 39 6.9 CALM 0 0 0 0 1014.9 1013.7 0.0
04/10:30pm 18.7 17.4 4.1 38 7.0 CALM 0 0 0 0 1014.9 1013.7 0.0
04/10:00pm 18.7 16.6 4.1 38 7.0 SSW 4 7 2 4 1014.9 1013.7 0.0
04/09:30pm 19.0 16.4 3.2 35 7.5 WSW 6 7 3 4 1014.8 1013.6 0.0
04/09:00pm 20.4 18.2 3.2 32 8.3 N 4 6 2 3 1014.6 1013.3 0.0
04/08:30pm 20.7 19.4 3.9 33 8.2 CALM 0 0 0 0 1014.2 1012.9 0.0
04/08:00pm 21.2 19.7 3.0 30 8.8 CALM 0 0 0 0 1013.7 1012.4 0.0
04/07:30pm 22.8 20.0 2.3 26 9.8 ENE 6 7 3 4 1013.3 1012.0 0.0
04/07:00pm 25.1 22.3 1.9 22 11.2 E 6 7 3 4 1013.1 1011.8 0.0
04/06:30pm 27.4 24.2 1.0 18 12.8 ENE 7 7 4 4 1012.9 1011.6 0.0
04/06:00pm 30.9 27.3 0.3 14 15.0 E 9 11 5 6 1012.5 1011.3 0.0
04/05:30pm 32.1 28.8 0.2 13 15.7 ENE 7 11 4 6 1012.3 1011.1 0.0
04/05:00pm 32.8 28.5 0.8 13 16.0 E 13 19 7 10 1012.1 1010.9 0.0
04/04:30pm 32.9 28.4 -0.2 12 16.3 ENE 13 19 7 10 1012.0 1010.8 0.0
04/04:00pm 33.0 28.7 0.9 13 16.1 E 13 20 7 11 1012.1 1010.9 0.0
04/03:30pm 32.8 28.3 -0.3 12 16.3 ENE 13 20 7 11 1012.2 1011.0 0.0
04/03:00pm 32.8 28.7 -0.3 12 16.3 E 11 20 6 11 1012.3 1011.1 0.0
04/02:30pm 32.7 28.7 0.7 13 16.0 E 11 22 6 12 1012.9 1011.6 0.0
04/02:00pm 32.2 27.9 1.3 14 15.5 E 13 20 7 11 1013.5 1012.2 0.0
04/01:30pm 32.5 29.1 1.6 14 15.6 NE 9 17 5 9 1014.0 1012.7 0.0
04/01:00pm 31.3 27.9 1.6 15 14.9 E 9 19 5 10 1014.5 1013.2 0.0
04/12:30pm 31.0 26.6 0.4 14 15.0 NE 13 22 7 12 1015.0 1013.8 0.0
04/12:00pm 30.5 26.2 1.0 15 14.6 ENE 13 20 7 11 1015.4 1014.2 0.0
04/11:30am 29.9 25.3 1.4 16 14.1 ENE 15 26 8 14 1015.7 1014.5 0.0
04/11:00am 29.4 25.0 2.6 18 13.5 E 15 26 8 14 1016.2 1014.9 0.0
04/10:30am 27.7 23.2 2.0 19 12.7 ENE 15 24 8 13 1016.3 1015.0 0.0
04/10:00am 27.2 23.2 3.0 21 12.1 E 13 19 7 10 1016.0 1014.8 0.0
04/09:30am 25.6 22.1 3.5 24 11.1 ESE 11 17 6 9 1015.9 1014.7 0.0
04/09:00am 21.8 19.2 4.4 32 8.6 SE 7 9 4 5 1015.9 1014.7 0.0
04/08:30am 18.5 16.0 3.6 37 7.1 SSE 6 7 3 4 1015.8 1014.6 0.0
04/08:00am 15.5 14.2 4.2 47 5.3 CALM 0 0 0 0 1015.6 1014.4 0.0
04/07:30am 11.2 9.9 4.2 62 3.2 CALM 0 0 0 0 1015.4 1014.2 0.0
04/07:00am 10.9 9.4 3.0 58 3.5 CALM 0 0 0 0 1015.0 1013.8 0.0
04/06:30am 11.2 9.7 2.8 56 3.7 CALM 0 0 0 0 1014.8 1013.6 0.0
04/06:00am 11.5 10.0 2.8 55 3.9 CALM 0 0 0 0 1014.6 1013.3 0.0
04/05:30am 11.8 10.2 2.5 53 4.1 CALM 0 0 0 0 1014.6 1013.3 0.0
04/05:00am 12.3 10.7 2.2 50 4.4 CALM 0 0 0 0 1014.5 1013.2 0.0
04/04:30am 13.5 10.7 1.8 45 5.2 S 6 7 3 4 1014.3 1013.0 0.0
04/04:00am 12.4 10.3 1.7 48 4.7 SSW 2 6 1 3 1014.4 1013.1 0.0
04/03:30am 13.3 10.9 2.2 47 4.9 W 4 6 2 3 1014.4 1013.1 0.0
04/03:00am 13.2 11.6 2.4 48 4.8 CALM 0 0 0 0 1014.4 1013.1 0.0
04/02:30am 14.1 11.2 2.4 45 5.3 NW 7 7 4 4 1014.3 1013.0 0.0
04/02:00am 13.7 10.9 2.3 46 5.1 WNW 6 7 3 4 1014.6 1013.3 0.0
04/01:30am 15.2 12.5 2.7 43 5.7 WNW 6 7 3 4 1014.9 1013.7 0.0
04/01:00am 14.4 12.8 2.3 44 5.4 CALM 0 0 0 0 1014.9 1013.7 0.0
04/12:30am 14.3 12.7 2.2 44 5.4 CALM 0 0 0 0 1015.1 1013.9 0.0
04/12:00am 14.7 13.0 1.6 41 5.8 CALM 0 0 0 0 1015.3 1014.1 0.0
 
Date/Time
CST
Temp
°C
App
Temp
°C
Dew
Point
Rel
Hum
%
Delta-T
°C
Wind Press
QNH
hPa
Press
MSL
hPa
Rain
since 9 am
mm
Dir
 
Spd
km/h
Gust
km/h
Spd
kts
Gust
kts
03/11:30pm 15.2 13.4 1.4 39 6.1 CALM 0 0 0 0 1015.4 1014.2 0.0
03/11:00pm 15.7 12.7 1.1 37 6.5 SSE 6 7 3 4 1015.6 1014.4 0.0
03/10:30pm 15.8 13.9 0.8 36 6.6 CALM 0 0 0 0 1015.5 1014.3 0.0
03/10:00pm 18.9 15.2 0.0 28 8.4 E 9 9 5 5 1015.5 1014.3 0.0
03/09:30pm 18.8 15.0 -0.6 27 8.5 E 9 11 5 6 1015.6 1014.4 0.0
03/09:00pm 19.8 16.5 -0.2 26 8.9 E 7 9 4 5 1015.5 1014.3 0.0
03/08:30pm 19.5 15.6 -1.6 24 9.1 E 9 9 5 5 1015.2 1014.0 0.0
03/08:00pm 21.1 17.1 -2.0 21 10.1 E 9 11 5 6 1014.9 1013.7 0.0
03/07:30pm 22.0 18.3 -2.7 19 10.7 E 7 9 4 5 1014.6 1013.3 0.0
03/07:00pm 21.8 18.2 -2.1 20 10.5 ESE 7 7 4 4 1014.3 1013.0 0.0
03/06:30pm 25.7 22.0 -2.8 15 12.7 E 7 9 4 5 1014.2 1012.9 0.0
03/06:00pm 28.8 24.4 -2.3 13 14.4 E 11 13 6 7 1014.0 1012.7 0.0
03/05:30pm 30.0 25.6 -2.5 12 15.1 E 11 19 6 10 1013.7 1012.4 0.0
03/05:00pm 30.6 25.9 -2.0 12 15.3 ENE 13 20 7 11 1013.6 1012.3 0.0
03/04:30pm 31.1 26.4 -1.6 12 15.5 ENE 13 22 7 12 1013.6 1012.3 0.0
03/04:00pm 31.0 26.7 -1.7 12 15.5 ENE 11 22 6 12 1013.7 1012.4 0.0
03/03:30pm 31.0 25.4 -2.9 11 15.7 E 17 26 9 14 1013.8 1012.5 0.0
03/03:00pm 31.1 26.4 -1.6 12 15.5 ESE 13 22 7 12 1014.0 1012.7 0.0
03/02:30pm 30.9 25.8 -1.8 12 15.5 E 15 24 8 13 1014.3 1013.0 0.0
03/02:00pm 30.1 25.7 -2.4 12 15.1 E 11 20 6 11 1014.8 1013.6 0.0
03/01:30pm 30.1 25.5 -1.3 13 14.9 E 13 26 7 14 1015.2 1014.0 0.0
03/01:00pm 29.5 24.4 -1.8 13 14.7 ENE 15 30 8 16 1015.7 1014.5 0.0
03/12:30pm 29.5 24.6 -0.8 14 14.4 NE 15 24 8 13 1016.2 1014.9 0.0
03/12:00pm 28.6 23.3 -0.5 15 13.8 E 17 24 9 13 1017.0 1015.7 0.0
03/11:30am 28.0 22.5 0.7 17 13.2 E 19 28 10 15 1017.4 1016.1 0.0
03/11:00am 26.9 21.4 0.6 18 12.6 ENE 19 30 10 16 1018.0 1016.8 0.0
03/10:30am 25.6 19.9 0.3 19 11.9 ENE 20 28 11 15 1018.3 1017.1 0.0
03/10:00am 24.4 19.2 0.0 20 11.4 E 17 24 9 13 1018.4 1017.2 0.0
03/09:30am 23.2 17.9 -0.3 21 10.7 E 17 26 9 14 1018.5 1017.3 0.0
03/09:00am 21.2 16.6 -0.7 23 9.8 ESE 13 19 7 10 1018.2 1017.0 0.0
03/08:30am 17.0 13.8 0.6 33 7.3 SE 7 11 4 6 1018.1 1016.9 0.0
03/08:00am 14.5 11.1 -0.4 36 6.3 SE 7 11 4 6 1017.9 1016.7 0.0
03/07:30am 10.7 7.4 0.2 48 4.3 ESE 7 9 4 5 1017.5 1016.2 0.0
03/07:00am 8.2 5.9 0.2 57 3.2 S 2 9 1 5 1017.2 1015.9 0.0
03/06:30am 8.2 6.2 0.2 57 3.2 CALM 0 0 0 0 1016.7 1015.4 0.0
03/06:00am 8.5 6.5 -0.3 54 3.5 CALM 0 0 0 0 1016.4 1015.1 0.0
03/05:30am 9.3 7.3 -0.3 51 3.9 CALM 0 0 0 0 1016.0 1014.8 0.0
03/05:00am 10.1 8.0 -1.0 46 4.4 CALM 0 2 0 1 1015.8 1014.6 0.0
03/04:30am 9.8 7.7 -1.0 47 4.3 CALM 0 0 0 0 1015.8 1014.6 0.0
03/04:00am 10.6 8.5 -0.8 45 4.6 CALM 0 0 0 0 1015.5 1014.3 0.0
03/03:30am 11.2 7.9 -0.9 43 4.9 WSW 6 7 3 4 1015.6 1014.4 0.0
03/03:00am 10.7 7.4 -1.4 43 4.8 W 6 6 3 3 1015.5 1014.3 0.0
03/02:30am 12.1 8.9 -0.7 41 5.3 NW 6 7 3 4 1015.6 1014.4 0.0
03/02:00am 11.7 8.5 -0.4 43 5.0 WNW 6 9 3 5 1015.7 1014.5 0.0
03/01:30am 12.3 9.0 -1.6 38 5.6 NW 6 7 3 4 1015.7 1014.5 0.0
03/01:00am 13.6 10.0 -1.9 34 6.3 NW 7 7 4 4 1015.9 1014.7 0.0
03/12:30am 13.2 9.8 -2.3 34 6.2 NNW 6 7 3 4 1016.0 1014.8 0.0
03/12:00am 14.2 11.9 -2.2 32 6.7 CALM 0 0 0 0 1016.2 1014.9 0.0
 
Date/Time
CST
Temp
°C
App
Temp
°C
Dew
Point
Rel
Hum
%
Delta-T
°C
Wind Press
QNH
hPa
Press
MSL
hPa
Rain
since 9 am
mm
Dir
 
Spd
km/h
Gust
km/h
Spd
kts
Gust
kts
02/11:30pm 13.8 11.4 -3.0 31 6.7 CALM 0 6 0 3 1016.3 1015.0 0.0
02/11:00pm 13.8 10.3 -2.6 32 6.6 SSE 6 6 3 3 1016.4 1015.1 0.0
02/10:30pm 14.6 10.9 -4.2 27 7.3 SE 6 6 3 3 1016.4 1015.1 0.0
02/10:00pm 16.0 12.2 -4.0 25 8.0 SE 7 9 4 5 1016.3 1015.0 0.0

Other Formats:

Comma delimited format used in spreadsheet applications
http://www.bom.gov.au/fwo/IDD60801/IDD60801.94231.axf

JavaScript Object Notation format (JSON) in row-major order
http://www.bom.gov.au/fwo/IDD60801/IDD60801.94231.json